Главная страница
METAR-TAF:

METAR-TAF

Аэропорты :

Кусаие, Микронезия

широта: 05-21N, долгота: 162-57E, высота над уровнем моря: 3 м

Текущие метеонаблюдения

Эта сводка был подготовлена 51 минут назад, в 19:50 UTC
Ветер 7 Узел от восточно-юго-восточный
Температура 26°C
Влажность 89%
Давление 1010 hPa
Видимость: 16.1 км
Отдельные облака на высоте 1900 фута, мощно-кучевые.
Рассеянная облачность на высоте 13000 фута
Сплошная облачность на высоте 30000 фута

METAR: PTSA 241950Z 11007KT 10SM SCT019TCU BKN130 OVC300 26/24 A2983 RMK VCSH N TCU W-E

Время: 07:41 (20:41 UTC)

Прогноз

Эта сводка был подготовлена 3 часа и 18 минут назад, в 17:23 UTC
Прогноз действительный с 24-го 18 UTC до 25-го 18 UTC
Ветер 5 Узел переменных направлений
Видимость: 10 км
Отдельные облака на высоте 1800 фута
Отдельные облака на высоте 14000 фута
ливни в окрестностях

TAF: PTSA 241723Z 2418/2518 VRB05KT P6SM VCSH SCT018 SCT140

Метеонаблюдения и прогнозы для более 4000 аэропортов (сводки METAR и TAF).

Имеющиеся станции представлены на карте желтыми и красными точками.

Чтобы увидеть название станции, наведите на нее мышь.

Затем щелкните, чтобы увидеть метеонаблюдения и метеопрогнозы.

Управление картой: чтобы увеличить масштаб, щелкните зеленые кнопки с черным крестиком; чтобы уменьшить масштаб, щелкните зеленую кнопку с тире; для просмотра соседних карт щелкайте зеленые стрелки.


METAR-TAF: